createdAt,value
2023-04-15T00:00:18.745Z,95121
2023-04-15T00:01:18.721Z,95117
2023-04-15T00:02:18.931Z,95117
2023-04-15T00:03:19.064Z,95119
2023-04-15T00:04:18.880Z,95119
2023-04-15T00:05:18.770Z,95121
2023-04-15T00:06:18.727Z,95121
2023-04-15T00:07:18.727Z,95122
2023-04-15T00:08:18.775Z,95122
2023-04-15T00:10:18.738Z,95120
2023-04-15T00:11:18.797Z,95123
2023-04-15T00:13:18.796Z,95122
2023-04-15T00:14:18.777Z,95120
2023-04-15T00:15:18.782Z,95119
2023-04-15T00:16:18.855Z,95121
2023-04-15T00:17:18.866Z,95121
2023-04-15T00:18:18.792Z,95119
2023-04-15T00:19:18.825Z,95122
2023-04-15T00:21:18.813Z,95123
2023-04-15T00:22:21.518Z,95122
2023-04-15T00:23:18.791Z,95115
2023-04-15T00:24:18.796Z,95119
2023-04-15T00:25:18.799Z,95119
2023-04-15T00:26:18.847Z,95113
2023-04-15T00:27:18.816Z,95110
2023-04-15T00:28:18.800Z,95110
2023-04-15T00:29:18.842Z,95112
2023-04-15T00:30:18.817Z,95112
2023-04-15T00:31:18.885Z,95109
2023-04-15T00:32:18.863Z,95108
2023-04-15T00:34:18.828Z,95103
2023-04-15T00:35:18.825Z,95103
2023-04-15T00:37:18.872Z,95106
2023-04-15T00:38:18.849Z,95104
2023-04-15T00:39:18.811Z,95104
2023-04-15T00:40:18.887Z,95105
2023-04-15T00:41:18.844Z,95105
2023-04-15T00:42:18.860Z,95102
2023-04-15T00:43:18.854Z,95102
2023-04-15T00:45:18.888Z,95097
2023-04-15T00:46:18.852Z,95100
2023-04-15T00:49:18.857Z,95098
2023-04-15T00:50:18.870Z,95100
2023-04-15T00:51:18.844Z,95097
2023-04-15T00:53:18.909Z,95093
2023-04-15T00:54:18.859Z,95096
2023-04-15T00:55:18.906Z,95096
2023-04-15T00:56:18.912Z,95099
2023-04-15T00:57:18.888Z,95097
2023-04-15T00:58:18.933Z,95098
2023-04-15T00:59:22.422Z,95099
2023-04-15T01:00:18.891Z,95098
2023-04-15T01:01:18.966Z,95105
2023-04-15T01:02:19.004Z,95105
2023-04-15T01:03:19.072Z,95102
2023-04-15T01:04:19.066Z,95102
2023-04-15T01:05:18.873Z,95102
2023-04-15T01:06:18.913Z,95103
2023-04-15T01:07:18.879Z,95103
2023-04-15T01:08:18.882Z,95104
2023-04-15T01:09:18.917Z,95101
2023-04-15T01:10:18.905Z,95101
2023-04-15T01:11:18.925Z,95101
2023-04-15T01:12:18.928Z,95101
2023-04-15T01:13:18.916Z,95100
2023-04-15T01:14:18.953Z,95101
2023-04-15T01:15:18.926Z,95099
2023-04-15T01:16:18.964Z,95102
2023-04-15T01:17:19.034Z,95102
2023-04-15T01:18:18.919Z,95107
2023-04-15T01:19:18.963Z,95110
2023-04-15T01:20:18.938Z,95113
2023-04-15T01:21:18.908Z,95115
2023-04-15T01:23:19.076Z,95119
2023-04-15T01:24:18.944Z,95119
2023-04-15T01:25:19.001Z,95119
2023-04-15T01:26:18.959Z,95119
2023-04-15T01:28:18.966Z,95119
2023-04-15T01:29:18.930Z,95119
2023-04-15T01:30:18.990Z,95116
2023-04-15T01:31:18.987Z,95118
2023-04-15T01:32:19.009Z,95114
2023-04-15T01:34:18.968Z,95116
2023-04-15T01:35:18.983Z,95117
2023-04-15T01:36:22.734Z,95114
2023-04-15T01:37:18.945Z,95114
2023-04-15T01:39:18.971Z,95119
2023-04-15T01:40:19.000Z,95118
2023-04-15T01:41:18.959Z,95118
2023-04-15T01:43:19.024Z,95120
2023-04-15T01:44:18.999Z,95121
2023-04-15T01:46:19.048Z,95121
2023-04-15T01:48:19.038Z,95119
2023-04-15T01:49:19.033Z,95119
2023-04-15T01:50:19.040Z,95118
2023-04-15T01:51:19.043Z,95115
2023-04-15T01:52:19.026Z,95114
2023-04-15T01:54:18.998Z,95117
2023-04-15T01:55:18.991Z,95117
2023-04-15T01:56:19.030Z,95117
2023-04-15T01:58:19.021Z,95117
2023-04-15T02:01:19.136Z,95121
2023-04-15T02:02:19.078Z,95121
2023-04-15T02:03:19.164Z,95119
2023-04-15T02:04:19.056Z,95122
2023-04-15T02:05:19.023Z,95122
2023-04-15T02:06:19.071Z,95124
2023-04-15T02:08:19.030Z,95122
2023-04-15T02:09:20.530Z,95118
2023-04-15T02:10:19.093Z,95116
2023-04-15T02:12:19.137Z,95115
2023-04-15T02:14:19.086Z,95117
2023-04-15T02:17:19.166Z,95115
2023-04-15T02:19:19.156Z,95118
2023-04-15T02:20:19.132Z,95117
2023-04-15T02:21:19.124Z,95120
2023-04-15T02:22:19.135Z,95117
2023-04-15T02:23:19.081Z,95117
2023-04-15T02:25:19.143Z,95121
2023-04-15T02:26:19.080Z,95121
2023-04-15T02:27:19.118Z,95125
2023-04-15T02:28:19.128Z,95125
2023-04-15T02:29:19.112Z,95129
2023-04-15T02:30:19.113Z,95127
2023-04-15T02:31:19.096Z,95127
2023-04-15T02:33:19.140Z,95127
2023-04-15T02:36:19.145Z,95123
2023-04-15T02:37:19.146Z,95123
2023-04-15T02:39:19.148Z,95120
2023-04-15T02:40:19.137Z,95119
2023-04-15T02:41:19.180Z,95121
2023-04-15T02:42:19.120Z,95118
2023-04-15T02:43:19.157Z,95119
2023-04-15T02:44:19.159Z,95120
2023-04-15T02:45:19.132Z,95120
2023-04-15T02:46:19.222Z,95120
2023-04-15T02:47:19.224Z,95121
2023-04-15T02:48:19.191Z,95124
2023-04-15T02:49:19.161Z,95121
2023-04-15T02:50:23.537Z,95124
2023-04-15T02:52:19.165Z,95127
2023-04-15T02:53:19.174Z,95121
2023-04-15T02:56:19.204Z,95120
2023-04-15T02:57:19.161Z,95120
2023-04-15T02:58:19.166Z,95121
2023-04-15T02:59:19.212Z,95120
2023-04-15T03:00:19.151Z,95120
2023-04-15T03:01:19.319Z,95120
2023-04-15T03:02:19.263Z,95119
2023-04-15T03:03:19.243Z,95119
2023-04-15T03:04:19.269Z,95120
2023-04-15T03:05:19.163Z,95120
2023-04-15T03:06:19.184Z,95124
2023-04-15T03:07:19.205Z,95121
2023-04-15T03:09:19.175Z,95122
2023-04-15T03:10:19.234Z,95123
2023-04-15T03:11:19.211Z,95124
2023-04-15T03:12:19.248Z,95119
2023-04-15T03:13:19.215Z,95117
2023-04-15T03:14:19.197Z,95118
2023-04-15T03:15:19.215Z,95119
2023-04-15T03:17:19.264Z,95120
2023-04-15T03:18:19.206Z,95120
2023-04-15T03:19:19.231Z,95120
2023-04-15T03:20:19.277Z,95119
2023-04-15T03:22:19.225Z,95116
2023-04-15T03:25:19.253Z,95117
2023-04-15T03:26:19.217Z,95119
2023-04-15T03:27:23.826Z,95122
2023-04-15T03:29:19.254Z,95120
2023-04-15T03:30:19.253Z,95123
2023-04-15T03:31:19.326Z,95120
2023-04-15T03:32:19.285Z,95116
2023-04-15T03:33:19.298Z,95115
2023-04-15T03:34:19.267Z,95115
2023-04-15T03:35:19.253Z,95114
2023-04-15T03:36:19.330Z,95117
2023-04-15T03:37:19.277Z,95116
2023-04-15T03:38:19.304Z,95116
2023-04-15T03:39:19.314Z,95116
2023-04-15T03:40:19.263Z,95116
2023-04-15T03:41:19.296Z,95114
2023-04-15T03:44:19.331Z,95112
2023-04-15T03:46:19.381Z,95108
2023-04-15T03:47:19.276Z,95108
2023-04-15T03:49:19.343Z,95104
2023-04-15T03:51:19.290Z,95103
2023-04-15T03:52:19.306Z,95107
2023-04-15T03:53:19.267Z,95107
2023-04-15T03:54:19.318Z,95107
2023-04-15T03:55:19.309Z,95107
2023-04-15T03:56:19.296Z,95105
2023-04-15T03:57:19.315Z,95104
2023-04-15T03:58:19.300Z,95105
2023-04-15T04:00:19.382Z,95107
2023-04-15T04:02:19.481Z,95106
2023-04-15T04:03:19.589Z,95106
2023-04-15T04:04:24.297Z,95111
2023-04-15T04:07:19.375Z,95112
2023-04-15T04:08:19.339Z,95113
2023-04-15T04:09:19.345Z,95113
2023-04-15T04:10:19.374Z,95115
2023-04-15T04:11:19.363Z,95115
2023-04-15T04:12:19.350Z,95116
2023-04-15T04:13:19.383Z,95119
2023-04-15T04:14:19.373Z,95119
2023-04-15T04:15:19.374Z,95115
2023-04-15T04:16:19.446Z,95116
2023-04-15T04:17:19.386Z,95116
2023-04-15T04:19:19.365Z,95113
2023-04-15T04:20:19.350Z,95113
2023-04-15T04:21:19.434Z,95112
2023-04-15T04:22:19.386Z,95115
2023-04-15T04:24:19.371Z,95121
2023-04-15T04:25:19.359Z,95113
2023-04-15T04:27:19.383Z,95117
2023-04-15T04:28:19.428Z,95119
2023-04-15T04:29:19.447Z,95116
2023-04-15T04:30:19.390Z,95116
2023-04-15T04:32:19.397Z,95121
2023-04-15T04:33:19.385Z,95119
2023-04-15T04:34:19.421Z,95119
2023-04-15T04:35:19.408Z,95119
2023-04-15T04:36:19.448Z,95113
2023-04-15T04:37:19.403Z,95113
2023-04-15T04:38:19.417Z,95114
2023-04-15T04:39:19.436Z,95116
2023-04-15T04:41:24.275Z,95119
2023-04-15T04:42:19.449Z,95122
2023-04-15T04:43:19.420Z,95120
2023-04-15T04:44:19.454Z,95118
2023-04-15T04:45:19.441Z,95122
2023-04-15T04:46:19.479Z,95121
2023-04-15T04:48:19.408Z,95121
2023-04-15T04:49:19.473Z,95121
2023-04-15T04:50:19.491Z,95123
2023-04-15T04:51:19.456Z,95123
2023-04-15T04:53:19.423Z,95124
2023-04-15T04:54:19.431Z,95121
2023-04-15T04:56:19.489Z,95118
2023-04-15T04:58:19.466Z,95122
2023-04-15T05:02:19.556Z,95121
2023-04-15T05:04:19.495Z,95119
2023-04-15T05:05:19.507Z,95120
2023-04-15T05:06:19.485Z,95121
2023-04-15T05:08:19.513Z,95126
2023-04-15T05:09:19.484Z,95126
2023-04-15T05:10:19.521Z,95131
2023-04-15T05:11:19.510Z,95131
2023-04-15T05:12:19.498Z,95134
2023-04-15T05:13:19.527Z,95133
2023-04-15T05:14:20.207Z,95133
2023-04-15T05:16:19.629Z,95136
2023-04-15T05:17:19.558Z,95135
2023-04-15T05:18:24.573Z,95138
2023-04-15T05:19:19.521Z,95138
2023-04-15T05:20:19.521Z,95139
2023-04-15T05:23:19.543Z,95142
2023-04-15T05:24:19.565Z,95142
2023-04-15T05:25:19.541Z,95141
2023-04-15T05:26:19.553Z,95141
2023-04-15T05:27:19.541Z,95138
2023-04-15T05:28:19.529Z,95138
2023-04-15T05:29:19.557Z,95141
2023-04-15T05:30:19.545Z,95141
2023-04-15T05:31:19.605Z,95140
2023-04-15T05:32:19.660Z,95142
2023-04-15T05:33:19.557Z,95140
2023-04-15T05:34:19.588Z,95143
2023-04-15T05:35:19.571Z,95143
2023-04-15T05:36:19.528Z,95143
2023-04-15T05:37:19.595Z,95142
2023-04-15T05:38:19.549Z,95142
2023-04-15T05:39:19.579Z,95146
2023-04-15T05:40:19.581Z,95146
2023-04-15T05:41:20.060Z,95146
2023-04-15T05:43:19.581Z,95145
2023-04-15T05:44:19.572Z,95145
2023-04-15T05:46:19.621Z,95143
2023-04-15T05:48:19.616Z,95140
2023-04-15T05:49:19.584Z,95140
2023-04-15T05:50:19.633Z,95143
2023-04-15T05:52:19.807Z,95145
2023-04-15T05:53:19.635Z,95144
2023-04-15T05:54:20.397Z,95147
2023-04-15T05:55:19.618Z,95151
2023-04-15T05:56:19.579Z,95151
2023-04-15T05:57:19.598Z,95151
2023-04-15T05:58:19.617Z,95149
2023-04-15T05:59:19.620Z,95153
2023-04-15T06:00:19.597Z,95155
2023-04-15T06:01:19.641Z,95154
2023-04-15T06:02:19.711Z,95154
2023-04-15T06:03:19.757Z,95154
2023-04-15T06:04:19.687Z,95157
2023-04-15T06:05:19.632Z,95159
2023-04-15T06:06:19.659Z,95154
2023-04-15T06:07:19.630Z,95159
2023-04-15T06:08:19.614Z,95154
2023-04-15T06:09:19.696Z,95154
2023-04-15T06:10:19.653Z,95153
2023-04-15T06:11:19.682Z,95154
2023-04-15T06:12:19.613Z,95154
2023-04-15T06:13:19.649Z,95152
2023-04-15T06:14:19.685Z,95152
2023-04-15T06:15:19.620Z,95152
2023-04-15T06:16:19.695Z,95150
2023-04-15T06:17:19.647Z,95151
2023-04-15T06:18:19.611Z,95151
2023-04-15T06:19:19.676Z,95151
2023-04-15T06:20:19.631Z,95151
2023-04-15T06:21:19.652Z,95149
2023-04-15T06:22:19.692Z,95149
2023-04-15T06:23:19.649Z,95147
2023-04-15T06:24:19.679Z,95147
2023-04-15T06:25:19.696Z,95149
2023-04-15T06:26:19.692Z,95146
2023-04-15T06:27:19.691Z,95144
2023-04-15T06:28:19.678Z,95144
2023-04-15T06:29:20.036Z,95145
2023-04-15T06:30:19.737Z,95148
2023-04-15T06:31:19.689Z,95148
2023-04-15T06:32:19.781Z,95143
2023-04-15T06:33:19.695Z,95144
2023-04-15T06:34:19.713Z,95143
2023-04-15T06:35:19.733Z,95143
2023-04-15T06:36:19.708Z,95143
2023-04-15T06:37:19.741Z,95147
2023-04-15T06:38:19.741Z,95143
2023-04-15T06:39:19.718Z,95143
2023-04-15T06:40:19.718Z,95148
2023-04-15T06:41:19.687Z,95148
2023-04-15T06:42:19.689Z,95148
2023-04-15T06:43:19.729Z,95149
2023-04-15T06:44:19.730Z,95149
2023-04-15T06:45:19.745Z,95143
2023-04-15T06:46:19.887Z,95146
2023-04-15T06:47:19.757Z,95147
2023-04-15T06:48:19.764Z,95150
2023-04-15T06:49:19.713Z,95149
2023-04-15T06:51:19.784Z,95153
2023-04-15T06:54:19.732Z,95159
2023-04-15T06:55:19.745Z,95159
2023-04-15T06:56:19.774Z,95159
2023-04-15T06:57:19.754Z,95158
2023-04-15T06:58:19.794Z,95162
2023-04-15T06:59:19.766Z,95162
2023-04-15T07:00:19.769Z,95162
2023-04-15T07:01:19.845Z,95159
2023-04-15T07:02:19.826Z,95159
2023-04-15T07:03:19.818Z,95163
2023-04-15T07:04:19.845Z,95160
2023-04-15T07:06:20.355Z,95158
2023-04-15T07:07:19.747Z,95161
2023-04-15T07:08:19.752Z,95161
2023-04-15T07:09:19.788Z,95157
2023-04-15T07:10:19.743Z,95157
2023-04-15T07:11:19.758Z,95157
2023-04-15T07:12:19.829Z,95156
2023-04-15T07:13:19.805Z,95160
2023-04-15T07:14:19.817Z,95158
2023-04-15T07:15:19.808Z,95158
2023-04-15T07:16:19.808Z,95155
2023-04-15T07:17:19.831Z,95151
2023-04-15T07:18:19.810Z,95151
2023-04-15T07:21:19.782Z,95152
2023-04-15T07:22:19.848Z,95148
2023-04-15T07:23:19.797Z,95148
2023-04-15T07:24:19.804Z,95148
2023-04-15T07:25:19.869Z,95146
2023-04-15T07:26:19.811Z,95146
2023-04-15T07:27:19.858Z,95145
2023-04-15T07:28:19.870Z,95145
2023-04-15T07:29:19.841Z,95143
2023-04-15T07:30:19.841Z,95143
2023-04-15T07:31:19.864Z,95142
2023-04-15T07:32:19.844Z,95142
2023-04-15T07:33:19.867Z,95139
2023-04-15T07:34:19.846Z,95139
2023-04-15T07:35:19.851Z,95139
2023-04-15T07:36:19.856Z,95141
2023-04-15T07:37:19.866Z,95141
2023-04-15T07:38:19.899Z,95142
2023-04-15T07:39:19.869Z,95138
2023-04-15T07:41:19.882Z,95142
2023-04-15T07:42:19.855Z,95142
2023-04-15T07:43:20.634Z,95141
2023-04-15T07:44:19.890Z,95138
2023-04-15T07:45:19.865Z,95142
2023-04-15T07:46:20.010Z,95144
2023-04-15T07:47:19.923Z,95143
2023-04-15T07:48:19.902Z,95146
2023-04-15T07:50:19.895Z,95141
2023-04-15T07:51:19.907Z,95143
2023-04-15T07:52:19.884Z,95143
2023-04-15T07:53:19.892Z,95145
2023-04-15T07:54:19.960Z,95146
2023-04-15T07:55:19.859Z,95146
2023-04-15T07:56:19.915Z,95145
2023-04-15T07:57:19.912Z,95141
2023-04-15T07:58:19.925Z,95147
2023-04-15T07:59:19.946Z,95145
2023-04-15T08:00:19.878Z,95145
2023-04-15T08:01:19.951Z,95143
2023-04-15T08:02:20.076Z,95143
2023-04-15T08:03:19.942Z,95145
2023-04-15T08:04:20.147Z,95143
2023-04-15T08:05:20.002Z,95143
2023-04-15T08:06:19.900Z,95143
2023-04-15T08:07:19.970Z,95140
2023-04-15T08:08:19.937Z,95143
2023-04-15T08:09:19.939Z,95145
2023-04-15T08:10:19.968Z,95144
2023-04-15T08:11:19.944Z,95144
2023-04-15T08:12:20.025Z,95144
2023-04-15T08:13:19.939Z,95146
2023-04-15T08:14:19.962Z,95145
2023-04-15T08:15:19.960Z,95146
2023-04-15T08:16:20.014Z,95144
2023-04-15T08:17:20.031Z,95147
2023-04-15T08:18:19.965Z,95148
2023-04-15T08:19:19.950Z,95148
2023-04-15T08:20:20.951Z,95147
2023-04-15T08:21:19.950Z,95145
2023-04-15T08:22:21.254Z,95145
2023-04-15T08:24:20.016Z,95147
2023-04-15T08:25:20.018Z,95151
2023-04-15T08:26:19.948Z,95151
2023-04-15T08:27:19.968Z,95151
2023-04-15T08:28:19.990Z,95153
2023-04-15T08:29:19.997Z,95153
2023-04-15T08:30:20.016Z,95150
2023-04-15T08:31:20.076Z,95153
2023-04-15T08:32:20.018Z,95151
2023-04-15T08:33:20.034Z,95154
2023-04-15T08:34:20.001Z,95154
2023-04-15T08:35:20.003Z,95154
2023-04-15T08:36:20.043Z,95154
2023-04-15T08:37:20.000Z,95156
2023-04-15T08:38:20.009Z,95156
2023-04-15T08:39:20.018Z,95158
2023-04-15T08:40:20.038Z,95158
2023-04-15T08:41:20.043Z,95157
2023-04-15T08:42:19.994Z,95159
2023-04-15T08:43:20.004Z,95159
2023-04-15T08:46:20.079Z,95160
2023-04-15T08:47:20.042Z,95160
2023-04-15T08:50:19.995Z,95158
2023-04-15T08:51:20.018Z,95156
2023-04-15T08:52:20.065Z,95157
2023-04-15T08:53:20.055Z,95156
2023-04-15T08:54:20.052Z,95154
2023-04-15T08:55:20.014Z,95158
2023-04-15T08:57:21.111Z,95155
2023-04-15T08:58:20.116Z,95156
2023-04-15T08:59:20.078Z,95156
2023-04-15T09:00:20.051Z,95156
2023-04-15T09:01:20.184Z,95157
2023-04-15T09:02:20.184Z,95156
2023-04-15T09:03:20.113Z,95156
2023-04-15T09:04:20.157Z,95157
2023-04-15T09:05:20.091Z,95158
2023-04-15T09:06:20.048Z,95159
2023-04-15T09:07:20.098Z,95163
2023-04-15T09:08:20.092Z,95163
2023-04-15T09:09:20.056Z,95168
2023-04-15T09:10:20.130Z,95167
2023-04-15T09:11:20.445Z,95167
2023-04-15T09:12:20.118Z,95172
2023-04-15T09:13:20.131Z,95169
2023-04-15T09:14:20.113Z,95166
2023-04-15T09:15:20.108Z,95167
2023-04-15T09:16:20.143Z,95171
2023-04-15T09:17:20.114Z,95171
2023-04-15T09:18:20.143Z,95171
2023-04-15T09:19:20.114Z,95170
2023-04-15T09:20:20.119Z,95171
2023-04-15T09:21:20.100Z,95174
2023-04-15T09:22:20.085Z,95174
2023-04-15T09:23:20.120Z,95177
2023-04-15T09:24:20.109Z,95178
2023-04-15T09:25:20.134Z,95178
2023-04-15T09:26:20.138Z,95180
2023-04-15T09:27:20.108Z,95180
2023-04-15T09:28:20.163Z,95180
2023-04-15T09:29:20.129Z,95177
2023-04-15T09:30:20.134Z,95181
2023-04-15T09:31:20.193Z,95184
2023-04-15T09:34:21.370Z,95178
2023-04-15T09:35:20.143Z,95178
2023-04-15T09:36:20.148Z,95183
2023-04-15T09:37:31.322Z,95183
2023-04-15T09:38:20.153Z,95187
2023-04-15T09:39:20.163Z,95185
2023-04-15T09:40:20.126Z,95185
2023-04-15T09:41:20.192Z,95183
2023-04-15T09:42:20.163Z,95183
2023-04-15T09:43:20.145Z,95188
2023-04-15T09:44:20.168Z,95187
2023-04-15T09:45:20.156Z,95187
2023-04-15T09:46:20.209Z,95185
2023-04-15T09:47:20.248Z,95187
2023-04-15T09:48:20.173Z,95187
2023-04-15T09:49:20.221Z,95190
2023-04-15T09:50:20.196Z,95191
2023-04-15T09:51:20.198Z,95191
2023-04-15T09:52:20.193Z,95191
2023-04-15T09:53:20.171Z,95198
2023-04-15T09:54:20.193Z,95199
2023-04-15T09:55:20.176Z,95196
2023-04-15T09:56:20.203Z,95196
2023-04-15T09:57:20.227Z,95194
2023-04-15T09:58:20.247Z,95192
2023-04-15T09:59:21.360Z,95189
2023-04-15T10:00:20.231Z,95196
2023-04-15T10:01:20.266Z,95192
2023-04-15T10:02:20.331Z,95193
2023-04-15T10:03:20.479Z,95201
2023-04-15T10:04:20.315Z,95201
2023-04-15T10:05:20.236Z,95200
2023-04-15T10:06:20.227Z,95203
2023-04-15T10:07:20.234Z,95202
2023-04-15T10:08:20.231Z,95202
2023-04-15T10:09:20.212Z,95203
2023-04-15T10:10:20.227Z,95200
2023-04-15T10:12:20.253Z,95201
2023-04-15T10:13:20.284Z,95202
2023-04-15T10:14:20.246Z,95201
2023-04-15T10:15:20.288Z,95201
2023-04-15T10:16:20.334Z,95199
2023-04-15T10:17:20.244Z,95200
2023-04-15T10:18:20.311Z,95200
2023-04-15T10:19:20.256Z,95202
2023-04-15T10:20:20.295Z,95203
2023-04-15T10:21:20.321Z,95203
2023-04-15T10:22:20.248Z,95210
2023-04-15T10:23:20.298Z,95206
2023-04-15T10:24:20.283Z,95209
2023-04-15T10:25:20.327Z,95210
2023-04-15T10:26:20.302Z,95210
2023-04-15T10:27:20.321Z,95206
2023-04-15T10:28:20.320Z,95210
2023-04-15T10:29:20.281Z,95211
2023-04-15T10:30:20.268Z,95211
2023-04-15T10:31:20.350Z,95215
2023-04-15T10:32:20.327Z,95211
2023-04-15T10:33:20.282Z,95205
2023-04-15T10:34:20.290Z,95210
2023-04-15T10:35:20.316Z,95211
2023-04-15T10:36:20.374Z,95207
2023-04-15T10:37:20.308Z,95207
2023-04-15T10:39:20.311Z,95207
2023-04-15T10:40:20.296Z,95208
2023-04-15T10:41:21.078Z,95207
2023-04-15T10:42:20.339Z,95208
2023-04-15T10:43:20.308Z,95205
2023-04-15T10:44:20.354Z,95210
2023-04-15T10:45:20.307Z,95210
2023-04-15T10:46:20.395Z,95210
2023-04-15T10:47:20.359Z,95214
2023-04-15T10:49:20.348Z,95219
2023-04-15T10:50:20.345Z,95217
2023-04-15T10:51:20.346Z,95220
2023-04-15T10:52:20.364Z,95221
2023-04-15T10:53:21.823Z,95230
2023-04-15T10:54:20.337Z,95224
2023-04-15T10:55:20.363Z,95223
2023-04-15T10:56:20.363Z,95227
2023-04-15T10:57:20.399Z,95228
2023-04-15T10:58:20.367Z,95228
2023-04-15T10:59:21.389Z,95228
2023-04-15T11:00:20.382Z,95233
2023-04-15T11:01:20.373Z,95232
2023-04-15T11:02:20.459Z,95232
2023-04-15T11:03:20.510Z,95232
2023-04-15T11:04:20.440Z,95232
2023-04-15T11:05:20.412Z,95232
2023-04-15T11:06:20.382Z,95232
2023-04-15T11:07:20.359Z,95237
2023-04-15T11:08:20.387Z,95234
2023-04-15T11:09:20.365Z,95235
2023-04-15T11:10:20.395Z,95236
2023-04-15T11:11:20.387Z,95238
2023-04-15T11:12:20.372Z,95241
2023-04-15T11:13:20.426Z,95241
2023-04-15T11:14:20.376Z,95245
2023-04-15T11:15:20.398Z,95244
2023-04-15T11:16:20.479Z,95247
2023-04-15T11:17:20.382Z,95248
2023-04-15T11:18:20.423Z,95246
2023-04-15T11:19:20.401Z,95246
2023-04-15T11:20:20.419Z,95252
2023-04-15T11:21:20.447Z,95255
2023-04-15T11:22:20.388Z,95255
2023-04-15T11:23:20.447Z,95256
2023-04-15T11:24:20.430Z,95261
2023-04-15T11:25:22.210Z,95264
2023-04-15T11:26:20.463Z,95260
2023-04-15T11:27:20.398Z,95260
2023-04-15T11:28:20.442Z,95265
2023-04-15T11:29:20.460Z,95265
2023-04-15T11:30:20.451Z,95264
2023-04-15T11:31:20.547Z,95265
2023-04-15T11:32:20.441Z,95265
2023-04-15T11:33:20.446Z,95268
2023-04-15T11:34:20.482Z,95267
2023-04-15T11:35:20.446Z,95272
2023-04-15T11:37:20.491Z,95272
2023-04-15T11:38:20.434Z,95277
2023-04-15T11:39:20.455Z,95278
2023-04-15T11:40:20.455Z,95278
2023-04-15T11:41:20.458Z,95280
2023-04-15T11:42:20.485Z,95275
2023-04-15T11:43:20.474Z,95277
2023-04-15T11:44:20.522Z,95281
2023-04-15T11:45:20.486Z,95283
2023-04-15T11:46:20.471Z,95283
2023-04-15T11:47:20.465Z,95285
2023-04-15T11:48:20.471Z,95285
2023-04-15T11:49:20.501Z,95285
2023-04-15T11:50:20.691Z,95289
2023-04-15T11:51:20.469Z,95286
2023-04-15T11:52:20.499Z,95289
2023-04-15T11:53:20.473Z,95292
2023-04-15T11:54:20.490Z,95292
2023-04-15T11:55:20.504Z,95295
2023-04-15T11:56:20.498Z,95295
2023-04-15T11:57:20.519Z,95299
2023-04-15T11:58:20.537Z,95300
2023-04-15T11:59:20.490Z,95299
2023-04-15T12:00:20.515Z,95300
2023-04-15T12:01:20.487Z,95300
2023-04-15T12:02:22.612Z,95306
2023-04-15T12:03:20.693Z,95304
2023-04-15T12:04:22.543Z,95308
2023-04-15T12:05:20.622Z,95309
2023-04-15T12:06:20.590Z,95307
2023-04-15T12:07:20.540Z,95309
2023-04-15T12:08:20.533Z,95314
2023-04-15T12:09:20.564Z,95314
2023-04-15T12:10:20.524Z,95314
2023-04-15T12:11:20.561Z,95314
2023-04-15T12:12:20.518Z,95314
2023-04-15T12:13:20.543Z,95314
2023-04-15T12:14:20.595Z,95318
2023-04-15T12:15:20.549Z,95319
2023-04-15T12:16:20.662Z,95309
2023-04-15T12:17:20.568Z,95313
2023-04-15T12:18:20.547Z,95316
2023-04-15T12:19:20.580Z,95318
2023-04-15T12:20:20.517Z,95318
2023-04-15T12:21:20.614Z,95324
2023-04-15T12:22:20.556Z,95326
2023-04-15T12:23:20.552Z,95326
2023-04-15T12:24:20.590Z,95324
2023-04-15T12:25:20.561Z,95330
2023-04-15T12:26:20.582Z,95332
2023-04-15T12:27:20.595Z,95336
2023-04-15T12:28:20.590Z,95334
2023-04-15T12:30:20.574Z,95336
2023-04-15T12:33:20.803Z,95339
2023-04-15T12:34:20.641Z,95336
2023-04-15T12:35:20.633Z,95340
2023-04-15T12:36:20.600Z,95339
2023-04-15T12:38:20.622Z,95339
2023-04-15T12:39:22.772Z,95343
2023-04-15T12:40:20.626Z,95343
2023-04-15T12:41:20.628Z,95350
2023-04-15T12:42:20.673Z,95354
2023-04-15T12:43:20.656Z,95350
2023-04-15T12:44:20.597Z,95350
2023-04-15T12:45:20.629Z,95359
2023-04-15T12:46:20.659Z,95360
2023-04-15T12:47:20.663Z,95360
2023-04-15T12:48:20.658Z,95361
2023-04-15T12:49:20.625Z,95361
2023-04-15T12:50:20.674Z,95364
2023-04-15T12:51:20.607Z,95364
2023-04-15T12:52:20.613Z,95364
2023-04-15T12:53:20.658Z,95364
2023-04-15T12:54:20.643Z,95364
2023-04-15T12:55:20.723Z,95372
2023-04-15T12:56:20.665Z,95372
2023-04-15T12:57:20.645Z,95369
2023-04-15T12:58:20.684Z,95374
2023-04-15T12:59:20.648Z,95374
2023-04-15T13:00:20.693Z,95377
2023-04-15T13:01:20.702Z,95378
2023-04-15T13:02:20.734Z,95378
2023-04-15T13:03:20.744Z,95377
2023-04-15T13:04:20.873Z,95377
2023-04-15T13:05:20.638Z,95375
2023-04-15T13:06:20.708Z,95379
2023-04-15T13:08:20.693Z,95378
2023-04-15T13:09:20.703Z,95384
2023-04-15T13:10:20.665Z,95382
2023-04-15T13:11:20.692Z,95384
2023-04-15T13:12:20.720Z,95382
2023-04-15T13:13:20.675Z,95388
2023-04-15T13:14:20.741Z,95389
2023-04-15T13:15:20.685Z,95392
2023-04-15T13:16:23.108Z,95392
2023-04-15T13:17:20.727Z,95396
2023-04-15T13:18:20.679Z,95394
2023-04-15T13:19:20.732Z,95399
2023-04-15T13:20:20.683Z,95401
2023-04-15T13:21:20.730Z,95400
2023-04-15T13:22:20.736Z,95402
2023-04-15T13:23:20.690Z,95404
2023-04-15T13:24:20.733Z,95403
2023-04-15T13:25:20.729Z,95403
2023-04-15T13:26:20.718Z,95403
2023-04-15T13:27:20.754Z,95405
2023-04-15T13:28:20.724Z,95405
2023-04-15T13:29:20.720Z,95407
2023-04-15T13:31:20.758Z,95406
2023-04-15T13:32:20.808Z,95406
2023-04-15T13:33:20.759Z,95407
2023-04-15T13:34:20.716Z,95410
2023-04-15T13:35:20.789Z,95409
2023-04-15T13:36:20.733Z,95413
2023-04-15T13:37:20.753Z,95410
2023-04-15T13:39:20.738Z,95410
2023-04-15T13:40:20.771Z,95414
2023-04-15T13:41:20.774Z,95422
2023-04-15T13:42:20.752Z,95422
2023-04-15T13:43:20.780Z,95413
2023-04-15T13:44:22.218Z,95424
2023-04-15T13:45:20.749Z,95421
2023-04-15T13:46:20.799Z,95421
2023-04-15T13:47:20.763Z,95421
2023-04-15T13:48:20.824Z,95422
2023-04-15T13:49:20.738Z,95422
2023-04-15T13:50:20.786Z,95422
2023-04-15T13:51:20.830Z,95421
2023-04-15T13:53:37.650Z,95423
2023-04-15T13:54:20.829Z,95427
2023-04-15T13:55:23.044Z,95427
2023-04-15T13:56:20.834Z,95426
2023-04-15T13:57:20.817Z,95433
2023-04-15T13:58:20.800Z,95433
2023-04-15T13:59:20.839Z,95436
2023-04-15T14:00:20.815Z,95430
2023-04-15T14:01:20.887Z,95430
2023-04-15T14:02:20.889Z,95436
2023-04-15T14:03:20.943Z,95436
2023-04-15T14:04:20.945Z,95439
2023-04-15T14:05:20.812Z,95438
2023-04-15T14:06:20.854Z,95439
2023-04-15T14:07:20.801Z,95441
2023-04-15T14:08:20.829Z,95448
2023-04-15T14:09:20.880Z,95444
2023-04-15T14:10:20.848Z,95449
2023-04-15T14:11:20.809Z,95441
2023-04-15T14:12:20.855Z,95445
2023-04-15T14:13:20.834Z,95450
2023-04-15T14:14:20.844Z,95447
2023-04-15T14:15:20.863Z,95449
2023-04-15T14:16:20.882Z,95449
2023-04-15T14:17:20.915Z,95451
2023-04-15T14:18:20.876Z,95453
2023-04-15T14:19:20.852Z,95453
2023-04-15T14:20:20.899Z,95458
2023-04-15T14:21:20.858Z,95458
2023-04-15T14:22:20.932Z,95461
2023-04-15T14:23:20.853Z,95464
2023-04-15T14:24:20.869Z,95464
2023-04-15T14:25:32.825Z,95465
2023-04-15T14:26:20.834Z,95465
2023-04-15T14:27:20.888Z,95467
2023-04-15T14:28:20.847Z,95466
2023-04-15T14:29:20.896Z,95468
2023-04-15T14:30:23.673Z,95468